Weather at Longcoy Airport [CLOSED]

Public forecast

Using degrees Fahrenheit for public forecast. Weather courtesy of forecast.io.

Closest aviation weather report (METAR) to Longcoy Airport

Closest report is Orlando Executive Airport, 9.6 nm (17.8 km) E.

2022/12/08 11:53 (retrieved 59 minutes ago)

KORL 081153Z AUTO 30005KT 10SM CLR 19/17 A3022 RMK AO2 SLP236 T01890172 10194 20183 53000

Closest aviation forecast (TAF) to Longcoy Airport

Closest forecast is Orlando International Airport, 13.8 nm (25.6 km) SE.

2022/12/08 12:22 (retrieved 30 minutes ago)

TAF KMCO 081120Z 0812/0918 VRB03KT P6SM FEW002 FEW050 TEMPO 0812/0813 4SM BR SCT002 FM081500 01006KT P6SM SCT035 FM090000 VRB05KT P6SM FEW050 FM090800 VRB03KT 4SM BR FEW002 TEMPO 0910/0913 2SM BR SCT002 FM091300 33006KT P6SM SCT035